sensor_id;sensor_type;location;lat;lon;timestamp;P1;durP1;ratioP1;P2;durP2;ratioP2
61962;SDS011;47927;42.646;23.096;2023-04-07T00:00:22;13.82;;;6.00;;
61962;SDS011;47927;42.646;23.096;2023-04-07T00:02:48;9.27;;;5.70;;
61962;SDS011;47927;42.646;23.096;2023-04-07T00:05:14;10.52;;;6.22;;
61962;SDS011;47927;42.646;23.096;2023-04-07T00:07:39;11.07;;;5.15;;
61962;SDS011;47927;42.646;23.096;2023-04-07T00:10:06;11.32;;;6.13;;
61962;SDS011;47927;42.646;23.096;2023-04-07T00:12:32;12.00;;;6.82;;
61962;SDS011;47927;42.646;23.096;2023-04-07T00:14:58;9.65;;;6.53;;
61962;SDS011;47927;42.646;23.096;2023-04-07T00:17:23;10.02;;;7.07;;
61962;SDS011;47927;42.646;23.096;2023-04-07T00:19:49;9.82;;;6.28;;
61962;SDS011;47927;42.646;23.096;2023-04-07T00:22:20;13.63;;;7.40;;
61962;SDS011;47927;42.646;23.096;2023-04-07T00:24:46;12.73;;;6.55;;
61962;SDS011;47927;42.646;23.096;2023-04-07T00:27:12;12.63;;;7.03;;
61962;SDS011;47927;42.646;23.096;2023-04-07T00:29:37;8.55;;;6.18;;
61962;SDS011;47927;42.646;23.096;2023-04-07T00:32:03;11.25;;;6.90;;
61962;SDS011;47927;42.646;23.096;2023-04-07T00:34:28;10.88;;;6.22;;
61962;SDS011;47927;42.646;23.096;2023-04-07T00:36:54;11.68;;;5.88;;
61962;SDS011;47927;42.646;23.096;2023-04-07T00:39:20;11.30;;;6.93;;
61962;SDS011;47927;42.646;23.096;2023-04-07T00:41:46;15.52;;;7.50;;
61962;SDS011;47927;42.646;23.096;2023-04-07T00:44:12;13.30;;;7.20;;
61962;SDS011;47927;42.646;23.096;2023-04-07T00:46:38;11.93;;;6.68;;
61962;SDS011;47927;42.646;23.096;2023-04-07T00:49:05;11.60;;;6.30;;
61962;SDS011;47927;42.646;23.096;2023-04-07T00:51:31;13.82;;;7.38;;
61962;SDS011;47927;42.646;23.096;2023-04-07T00:53:57;9.90;;;6.57;;
61962;SDS011;47927;42.646;23.096;2023-04-07T00:56:24;12.10;;;6.40;;
61962;SDS011;47927;42.646;23.096;2023-04-07T00:58:53;10.23;;;6.03;;
61962;SDS011;47927;42.646;23.096;2023-04-07T01:01:20;10.23;;;6.47;;
61962;SDS011;47927;42.646;23.096;2023-04-07T01:03:53;11.38;;;6.63;;
61962;SDS011;47927;42.646;23.096;2023-04-07T01:06:27;10.68;;;6.05;;
61962;SDS011;47927;42.646;23.096;2023-04-07T01:11:53;12.15;;;6.85;;
61962;SDS011;47927;42.646;23.096;2023-04-07T01:14:40;14.10;;;6.60;;
61962;SDS011;47927;42.646;23.096;2023-04-07T01:17:44;10.93;;;5.85;;
61962;SDS011;47927;42.646;23.096;2023-04-07T01:20:13;11.95;;;6.30;;
61962;SDS011;47927;42.646;23.096;2023-04-07T01:22:52;13.93;;;7.18;;
61962;SDS011;47927;42.646;23.096;2023-04-07T01:28:14;10.63;;;7.28;;
61962;SDS011;47927;42.646;23.096;2023-04-07T01:30:55;10.02;;;6.43;;
61962;SDS011;47927;42.646;23.096;2023-04-07T01:33:22;11.95;;;6.47;;
61962;SDS011;47927;42.646;23.096;2023-04-07T01:35:49;10.88;;;6.60;;
61962;SDS011;47927;42.646;23.096;2023-04-07T01:38:16;9.80;;;6.20;;
61962;SDS011;47927;42.646;23.096;2023-04-07T01:40:42;14.43;;;7.03;;
61962;SDS011;47927;42.646;23.096;2023-04-07T01:43:09;9.38;;;6.30;;
61962;SDS011;47927;42.646;23.096;2023-04-07T01:45:36;9.82;;;6.13;;
61962;SDS011;47927;42.646;23.096;2023-04-07T01:48:04;10.75;;;5.53;;
61962;SDS011;47927;42.646;23.096;2023-04-07T01:50:31;10.27;;;6.88;;
61962;SDS011;47927;42.646;23.096;2023-04-07T01:52:57;11.63;;;7.18;;
61962;SDS011;47927;42.646;23.096;2023-04-07T01:55:23;11.20;;;6.25;;
61962;SDS011;47927;42.646;23.096;2023-04-07T01:58:02;8.60;;;5.60;;
61962;SDS011;47927;42.646;23.096;2023-04-07T02:02:56;8.45;;;5.43;;
61962;SDS011;47927;42.646;23.096;2023-04-07T02:05:25;9.50;;;5.82;;
61962;SDS011;47927;42.646;23.096;2023-04-07T02:08:03;8.73;;;5.82;;
61962;SDS011;47927;42.646;23.096;2023-04-07T02:10:34;11.75;;;6.47;;
61962;SDS011;47927;42.646;23.096;2023-04-07T02:13:03;12.68;;;5.57;;
61962;SDS011;47927;42.646;23.096;2023-04-07T02:15:33;11.95;;;6.97;;
61962;SDS011;47927;42.646;23.096;2023-04-07T02:18:00;9.57;;;6.30;;
61962;SDS011;47927;42.646;23.096;2023-04-07T02:20:28;10.73;;;6.03;;
61962;SDS011;47927;42.646;23.096;2023-04-07T02:22:56;12.25;;;6.85;;
61962;SDS011;47927;42.646;23.096;2023-04-07T02:25:22;13.30;;;6.80;;
61962;SDS011;47927;42.646;23.096;2023-04-07T02:27:56;12.35;;;6.68;;
61962;SDS011;47927;42.646;23.096;2023-04-07T02:30:23;13.10;;;6.40;;
61962;SDS011;47927;42.646;23.096;2023-04-07T02:32:50;8.48;;;5.63;;
61962;SDS011;47927;42.646;23.096;2023-04-07T02:35:16;10.80;;;5.80;;
61962;SDS011;47927;42.646;23.096;2023-04-07T02:37:42;11.20;;;5.55;;
61962;SDS011;47927;42.646;23.096;2023-04-07T02:40:09;10.73;;;5.47;;
61962;SDS011;47927;42.646;23.096;2023-04-07T02:42:34;8.32;;;5.63;;
61962;SDS011;47927;42.646;23.096;2023-04-07T02:45:03;10.80;;;6.45;;
61962;SDS011;47927;42.646;23.096;2023-04-07T02:47:31;14.70;;;7.38;;
61962;SDS011;47927;42.646;23.096;2023-04-07T02:49:57;11.10;;;7.38;;
61962;SDS011;47927;42.646;23.096;2023-04-07T02:52:23;10.48;;;6.20;;
61962;SDS011;47927;42.646;23.096;2023-04-07T02:54:49;8.23;;;5.88;;
61962;SDS011;47927;42.646;23.096;2023-04-07T02:57:19;12.07;;;6.50;;
61962;SDS011;47927;42.646;23.096;2023-04-07T02:59:45;10.23;;;6.43;;
61962;SDS011;47927;42.646;23.096;2023-04-07T03:02:13;11.10;;;6.63;;
61962;SDS011;47927;42.646;23.096;2023-04-07T03:04:38;12.40;;;6.53;;
61962;SDS011;47927;42.646;23.096;2023-04-07T03:09:33;13.38;;;7.68;;
61962;SDS011;47927;42.646;23.096;2023-04-07T03:11:59;14.93;;;5.65;;
61962;SDS011;47927;42.646;23.096;2023-04-07T03:14:29;11.52;;;5.20;;
61962;SDS011;47927;42.646;23.096;2023-04-07T03:16:55;12.30;;;6.35;;
61962;SDS011;47927;42.646;23.096;2023-04-07T03:19:20;14.07;;;6.43;;
61962;SDS011;47927;42.646;23.096;2023-04-07T03:21:48;15.15;;;5.95;;
61962;SDS011;47927;42.646;23.096;2023-04-07T03:24:14;13.80;;;6.22;;
61962;SDS011;47927;42.646;23.096;2023-04-07T03:26:40;10.05;;;5.70;;
61962;SDS011;47927;42.646;23.096;2023-04-07T03:29:15;9.55;;;5.45;;
61962;SDS011;47927;42.646;23.096;2023-04-07T03:31:41;10.68;;;5.30;;
61962;SDS011;47927;42.646;23.096;2023-04-07T03:34:07;8.57;;;4.95;;
61962;SDS011;47927;42.646;23.096;2023-04-07T03:36:33;7.53;;;4.22;;
61962;SDS011;47927;42.646;23.096;2023-04-07T03:39:02;10.18;;;5.55;;
61962;SDS011;47927;42.646;23.096;2023-04-07T03:41:27;11.85;;;5.55;;
61962;SDS011;47927;42.646;23.096;2023-04-07T03:43:53;8.52;;;4.82;;
61962;SDS011;47927;42.646;23.096;2023-04-07T03:46:19;11.60;;;6.10;;
61962;SDS011;47927;42.646;23.096;2023-04-07T03:48:45;11.20;;;5.72;;
61962;SDS011;47927;42.646;23.096;2023-04-07T03:51:11;12.27;;;6.00;;
61962;SDS011;47927;42.646;23.096;2023-04-07T03:53:38;11.30;;;6.03;;
61962;SDS011;47927;42.646;23.096;2023-04-07T03:56:16;10.90;;;6.15;;
61962;SDS011;47927;42.646;23.096;2023-04-07T03:58:49;10.15;;;5.30;;
61962;SDS011;47927;42.646;23.096;2023-04-07T04:01:27;10.23;;;6.05;;
61962;SDS011;47927;42.646;23.096;2023-04-07T04:03:55;11.40;;;6.10;;
61962;SDS011;47927;42.646;23.096;2023-04-07T04:06:23;11.85;;;7.03;;
61962;SDS011;47927;42.646;23.096;2023-04-07T04:08:50;14.00;;;6.13;;
61962;SDS011;47927;42.646;23.096;2023-04-07T04:11:16;10.02;;;6.07;;
61962;SDS011;47927;42.646;23.096;2023-04-07T04:13:51;8.32;;;4.88;;
61962;SDS011;47927;42.646;23.096;2023-04-07T04:16:17;9.10;;;4.93;;
61962;SDS011;47927;42.646;23.096;2023-04-07T04:18:44;11.65;;;5.65;;
61962;SDS011;47927;42.646;23.096;2023-04-07T04:21:12;11.75;;;6.28;;
61962;SDS011;47927;42.646;23.096;2023-04-07T04:23:40;7.70;;;4.53;;
61962;SDS011;47927;42.646;23.096;2023-04-07T04:26:06;8.27;;;5.30;;
61962;SDS011;47927;42.646;23.096;2023-04-07T04:28:32;9.23;;;5.57;;
61962;SDS011;47927;42.646;23.096;2023-04-07T04:30:59;16.55;;;10.80;;
61962;SDS011;47927;42.646;23.096;2023-04-07T04:33:25;15.18;;;8.88;;
61962;SDS011;47927;42.646;23.096;2023-04-07T04:35:55;8.25;;;5.40;;
61962;SDS011;47927;42.646;23.096;2023-04-07T04:38:23;11.32;;;7.25;;
61962;SDS011;47927;42.646;23.096;2023-04-07T04:40:56;20.02;;;13.38;;
61962;SDS011;47927;42.646;23.096;2023-04-07T04:43:28;23.60;;;14.65;;
61962;SDS011;47927;42.646;23.096;2023-04-07T04:45:54;20.85;;;12.95;;
61962;SDS011;47927;42.646;23.096;2023-04-07T04:48:24;18.77;;;12.35;;
61962;SDS011;47927;42.646;23.096;2023-04-07T04:50:49;18.10;;;12.52;;
61962;SDS011;47927;42.646;23.096;2023-04-07T04:53:15;17.38;;;11.85;;
61962;SDS011;47927;42.646;23.096;2023-04-07T04:55:47;18.15;;;8.73;;
61962;SDS011;47927;42.646;23.096;2023-04-07T04:58:19;12.60;;;6.75;;
61962;SDS011;47927;42.646;23.096;2023-04-07T05:00:48;9.38;;;6.22;;
61962;SDS011;47927;42.646;23.096;2023-04-07T05:03:14;10.68;;;6.82;;
61962;SDS011;47927;42.646;23.096;2023-04-07T05:08:11;8.35;;;4.90;;
61962;SDS011;47927;42.646;23.096;2023-04-07T05:10:38;9.48;;;5.25;;
61962;SDS011;47927;42.646;23.096;2023-04-07T05:13:07;8.18;;;4.45;;
61962;SDS011;47927;42.646;23.096;2023-04-07T05:15:34;8.90;;;4.90;;
61962;SDS011;47927;42.646;23.096;2023-04-07T05:17:59;11.00;;;5.22;;
61962;SDS011;47927;42.646;23.096;2023-04-07T05:20:26;10.98;;;5.47;;
61962;SDS011;47927;42.646;23.096;2023-04-07T05:22:53;10.63;;;5.63;;
61962;SDS011;47927;42.646;23.096;2023-04-07T05:25:22;13.37;;;6.10;;
61962;SDS011;47927;42.646;23.096;2023-04-07T05:27:51;10.00;;;5.15;;
61962;SDS011;47927;42.646;23.096;2023-04-07T05:30:17;9.45;;;4.63;;
61962;SDS011;47927;42.646;23.096;2023-04-07T05:32:43;9.68;;;5.07;;
61962;SDS011;47927;42.646;23.096;2023-04-07T05:35:19;10.32;;;4.95;;
61962;SDS011;47927;42.646;23.096;2023-04-07T05:37:50;9.60;;;5.13;;
61962;SDS011;47927;42.646;23.096;2023-04-07T05:40:16;10.27;;;5.00;;
61962;SDS011;47927;42.646;23.096;2023-04-07T05:42:42;11.30;;;4.90;;
61962;SDS011;47927;42.646;23.096;2023-04-07T05:45:08;13.02;;;4.65;;
61962;SDS011;47927;42.646;23.096;2023-04-07T05:47:39;7.88;;;4.80;;
61962;SDS011;47927;42.646;23.096;2023-04-07T05:50:05;7.28;;;4.15;;
61962;SDS011;47927;42.646;23.096;2023-04-07T05:52:33;8.00;;;4.47;;
61962;SDS011;47927;42.646;23.096;2023-04-07T05:55:08;10.63;;;3.92;;
61962;SDS011;47927;42.646;23.096;2023-04-07T05:57:34;5.53;;;3.25;;
61962;SDS011;47927;42.646;23.096;2023-04-07T06:00:01;7.18;;;3.70;;
61962;SDS011;47927;42.646;23.096;2023-04-07T06:02:29;6.68;;;4.15;;
61962;SDS011;47927;42.646;23.096;2023-04-07T06:04:55;7.53;;;3.75;;
61962;SDS011;47927;42.646;23.096;2023-04-07T06:07:21;8.10;;;4.03;;
61962;SDS011;47927;42.646;23.096;2023-04-07T06:09:47;6.28;;;4.18;;
61962;SDS011;47927;42.646;23.096;2023-04-07T06:12:13;10.32;;;4.75;;
61962;SDS011;47927;42.646;23.096;2023-04-07T06:14:41;8.27;;;5.40;;
61962;SDS011;47927;42.646;23.096;2023-04-07T06:17:06;8.98;;;4.65;;
61962;SDS011;47927;42.646;23.096;2023-04-07T06:19:32;6.68;;;4.07;;
61962;SDS011;47927;42.646;23.096;2023-04-07T06:21:59;7.50;;;4.57;;
61962;SDS011;47927;42.646;23.096;2023-04-07T06:24:24;7.32;;;4.45;;
61962;SDS011;47927;42.646;23.096;2023-04-07T06:26:53;8.20;;;4.25;;
61962;SDS011;47927;42.646;23.096;2023-04-07T06:31:46;6.22;;;4.18;;
61962;SDS011;47927;42.646;23.096;2023-04-07T06:34:11;6.18;;;3.78;;
61962;SDS011;47927;42.646;23.096;2023-04-07T06:36:37;8.05;;;4.20;;
61962;SDS011;47927;42.646;23.096;2023-04-07T06:39:02;6.30;;;3.83;;
61962;SDS011;47927;42.646;23.096;2023-04-07T06:41:28;10.20;;;4.03;;
61962;SDS011;47927;42.646;23.096;2023-04-07T06:43:53;5.60;;;3.90;;
61962;SDS011;47927;42.646;23.096;2023-04-07T06:46:19;8.15;;;4.32;;
61962;SDS011;47927;42.646;23.096;2023-04-07T06:48:45;8.45;;;3.90;;
61962;SDS011;47927;42.646;23.096;2023-04-07T06:51:10;7.80;;;4.18;;
61962;SDS011;47927;42.646;23.096;2023-04-07T06:53:36;8.60;;;3.92;;
61962;SDS011;47927;42.646;23.096;2023-04-07T06:56:05;7.32;;;4.05;;
61962;SDS011;47927;42.646;23.096;2023-04-07T06:58:32;6.82;;;3.58;;
61962;SDS011;47927;42.646;23.096;2023-04-07T07:00:59;6.78;;;3.38;;
61962;SDS011;47927;42.646;23.096;2023-04-07T07:03:25;6.50;;;3.88;;
61962;SDS011;47927;42.646;23.096;2023-04-07T07:05:53;6.45;;;3.53;;
61962;SDS011;47927;42.646;23.096;2023-04-07T07:08:26;6.55;;;3.60;;
61962;SDS011;47927;42.646;23.096;2023-04-07T07:10:52;5.80;;;3.30;;
61962;SDS011;47927;42.646;23.096;2023-04-07T07:13:18;6.10;;;3.70;;
61962;SDS011;47927;42.646;23.096;2023-04-07T07:15:47;6.25;;;3.70;;
61962;SDS011;47927;42.646;23.096;2023-04-07T07:18:13;5.55;;;3.33;;
61962;SDS011;47927;42.646;23.096;2023-04-07T07:20:39;6.90;;;3.60;;
61962;SDS011;47927;42.646;23.096;2023-04-07T07:23:04;6.63;;;4.18;;
61962;SDS011;47927;42.646;23.096;2023-04-07T07:25:30;7.68;;;3.92;;
61962;SDS011;47927;42.646;23.096;2023-04-07T07:27:55;8.63;;;4.03;;
61962;SDS011;47927;42.646;23.096;2023-04-07T07:30:21;8.50;;;3.63;;
61962;SDS011;47927;42.646;23.096;2023-04-07T07:32:48;7.00;;;3.88;;
61962;SDS011;47927;42.646;23.096;2023-04-07T07:35:14;8.20;;;4.10;;
61962;SDS011;47927;42.646;23.096;2023-04-07T07:37:40;7.63;;;3.92;;
61962;SDS011;47927;42.646;23.096;2023-04-07T07:40:06;9.07;;;3.47;;
61962;SDS011;47927;42.646;23.096;2023-04-07T07:42:31;7.07;;;3.70;;
61962;SDS011;47927;42.646;23.096;2023-04-07T07:44:57;6.75;;;3.58;;
61962;SDS011;47927;42.646;23.096;2023-04-07T07:47:23;5.13;;;3.53;;
61962;SDS011;47927;42.646;23.096;2023-04-07T07:49:50;8.80;;;3.53;;
61962;SDS011;47927;42.646;23.096;2023-04-07T07:52:16;6.30;;;3.90;;
61962;SDS011;47927;42.646;23.096;2023-04-07T07:54:41;6.47;;;4.03;;
61962;SDS011;47927;42.646;23.096;2023-04-07T07:57:07;6.28;;;3.60;;
61962;SDS011;47927;42.646;23.096;2023-04-07T07:59:33;7.30;;;3.72;;
61962;SDS011;47927;42.646;23.096;2023-04-07T08:01:58;5.93;;;3.80;;
61962;SDS011;47927;42.646;23.096;2023-04-07T08:04:24;6.15;;;3.60;;
61962;SDS011;47927;42.646;23.096;2023-04-07T08:06:50;8.35;;;4.18;;
61962;SDS011;47927;42.646;23.096;2023-04-07T08:09:16;6.57;;;3.70;;
61962;SDS011;47927;42.646;23.096;2023-04-07T08:11:42;6.82;;;4.28;;
61962;SDS011;47927;42.646;23.096;2023-04-07T08:14:08;5.47;;;3.45;;
61962;SDS011;47927;42.646;23.096;2023-04-07T08:16:33;6.55;;;3.53;;
61962;SDS011;47927;42.646;23.096;2023-04-07T08:18:59;7.20;;;3.22;;
61962;SDS011;47927;42.646;23.096;2023-04-07T08:21:24;6.35;;;3.80;;
61962;SDS011;47927;42.646;23.096;2023-04-07T08:23:52;8.13;;;3.90;;
61962;SDS011;47927;42.646;23.096;2023-04-07T08:26:18;7.38;;;4.03;;
61962;SDS011;47927;42.646;23.096;2023-04-07T08:28:44;5.88;;;3.70;;
61962;SDS011;47927;42.646;23.096;2023-04-07T08:31:09;9.45;;;4.05;;
61962;SDS011;47927;42.646;23.096;2023-04-07T08:33:35;5.40;;;3.97;;
61962;SDS011;47927;42.646;23.096;2023-04-07T08:36:00;6.68;;;3.78;;
61962;SDS011;47927;42.646;23.096;2023-04-07T08:38:26;6.03;;;3.83;;
61962;SDS011;47927;42.646;23.096;2023-04-07T08:40:53;5.25;;;3.50;;
61962;SDS011;47927;42.646;23.096;2023-04-07T08:43:27;5.88;;;4.15;;
61962;SDS011;47927;42.646;23.096;2023-04-07T08:45:54;5.90;;;4.47;;
61962;SDS011;47927;42.646;23.096;2023-04-07T08:48:22;5.45;;;4.28;;
61962;SDS011;47927;42.646;23.096;2023-04-07T08:50:52;8.95;;;4.72;;
61962;SDS011;47927;42.646;23.096;2023-04-07T08:53:28;8.00;;;4.47;;
61962;SDS011;47927;42.646;23.096;2023-04-07T08:56:06;8.05;;;4.65;;
61962;SDS011;47927;42.646;23.096;2023-04-07T08:58:32;10.85;;;4.28;;
61962;SDS011;47927;42.646;23.096;2023-04-07T09:01:00;8.02;;;4.30;;
61962;SDS011;47927;42.646;23.096;2023-04-07T09:03:28;6.18;;;4.40;;
61962;SDS011;47927;42.646;23.096;2023-04-07T09:05:57;6.38;;;3.95;;
61962;SDS011;47927;42.646;23.096;2023-04-07T09:08:24;6.93;;;4.47;;
61962;SDS011;47927;42.646;23.096;2023-04-07T09:10:49;6.93;;;3.90;;
61962;SDS011;47927;42.646;23.096;2023-04-07T09:13:15;6.38;;;4.18;;
61962;SDS011;47927;42.646;23.096;2023-04-07T09:15:41;7.57;;;4.45;;
61962;SDS011;47927;42.646;23.096;2023-04-07T09:18:06;6.40;;;4.13;;
61962;SDS011;47927;42.646;23.096;2023-04-07T09:23:31;8.20;;;4.10;;
61962;SDS011;47927;42.646;23.096;2023-04-07T09:25:59;6.25;;;4.10;;
61962;SDS011;47927;42.646;23.096;2023-04-07T09:28:43;8.30;;;4.15;;
61962;SDS011;47927;42.646;23.096;2023-04-07T09:31:09;6.65;;;3.90;;
61962;SDS011;47927;42.646;23.096;2023-04-07T09:33:35;6.30;;;4.18;;
61962;SDS011;47927;42.646;23.096;2023-04-07T09:36:01;6.13;;;4.22;;
61962;SDS011;47927;42.646;23.096;2023-04-07T09:38:34;8.98;;;4.55;;
61962;SDS011;47927;42.646;23.096;2023-04-07T09:41:11;10.90;;;4.47;;
61962;SDS011;47927;42.646;23.096;2023-04-07T09:43:41;6.63;;;4.20;;
61962;SDS011;47927;42.646;23.096;2023-04-07T09:46:12;6.53;;;4.15;;
61962;SDS011;47927;42.646;23.096;2023-04-07T09:48:39;8.93;;;4.82;;
61962;SDS011;47927;42.646;23.096;2023-04-07T09:51:06;6.97;;;3.92;;
61962;SDS011;47927;42.646;23.096;2023-04-07T09:53:46;10.10;;;4.45;;
61962;SDS011;47927;42.646;23.096;2023-04-07T09:56:18;6.72;;;4.07;;
61962;SDS011;47927;42.646;23.096;2023-04-07T09:58:47;6.35;;;3.85;;
61962;SDS011;47927;42.646;23.096;2023-04-07T10:01:16;8.18;;;4.13;;
61962;SDS011;47927;42.646;23.096;2023-04-07T10:03:43;6.80;;;4.20;;
61962;SDS011;47927;42.646;23.096;2023-04-07T10:06:10;6.70;;;3.92;;
61962;SDS011;47927;42.646;23.096;2023-04-07T10:08:36;9.20;;;4.32;;
61962;SDS011;47927;42.646;23.096;2023-04-07T10:11:05;10.23;;;5.70;;
61962;SDS011;47927;42.646;23.096;2023-04-07T10:13:32;9.00;;;5.65;;
61962;SDS011;47927;42.646;23.096;2023-04-07T10:15:58;7.03;;;5.00;;
61962;SDS011;47927;42.646;23.096;2023-04-07T10:18:28;7.35;;;4.32;;
61962;SDS011;47927;42.646;23.096;2023-04-07T10:20:56;8.82;;;4.78;;
61962;SDS011;47927;42.646;23.096;2023-04-07T10:23:27;12.82;;;4.93;;
61962;SDS011;47927;42.646;23.096;2023-04-07T10:26:02;8.25;;;3.97;;
61962;SDS011;47927;42.646;23.096;2023-04-07T10:28:31;7.90;;;4.82;;
61962;SDS011;47927;42.646;23.096;2023-04-07T10:31:01;14.48;;;4.45;;
61962;SDS011;47927;42.646;23.096;2023-04-07T10:36:10;8.43;;;4.22;;
61962;SDS011;47927;42.646;23.096;2023-04-07T10:38:36;5.97;;;3.90;;
61962;SDS011;47927;42.646;23.096;2023-04-07T10:43:59;9.00;;;4.10;;
61962;SDS011;47927;42.646;23.096;2023-04-07T10:46:24;7.78;;;3.83;;
61962;SDS011;47927;42.646;23.096;2023-04-07T10:49:14;9.00;;;4.38;;
61962;SDS011;47927;42.646;23.096;2023-04-07T10:51:43;7.95;;;4.28;;
61962;SDS011;47927;42.646;23.096;2023-04-07T10:59:34;9.13;;;4.13;;
61962;SDS011;47927;42.646;23.096;2023-04-07T11:04:39;6.00;;;4.28;;
61962;SDS011;47927;42.646;23.096;2023-04-07T11:07:06;11.02;;;4.82;;
61962;SDS011;47927;42.646;23.096;2023-04-07T11:09:33;8.63;;;4.40;;
61962;SDS011;47927;42.646;23.096;2023-04-07T11:11:59;9.13;;;4.43;;
61962;SDS011;47927;42.646;23.096;2023-04-07T11:14:28;10.23;;;4.30;;
61962;SDS011;47927;42.646;23.096;2023-04-07T11:16:55;6.22;;;4.20;;
61962;SDS011;47927;42.646;23.096;2023-04-07T11:19:21;6.82;;;4.18;;
61962;SDS011;47927;42.646;23.096;2023-04-07T11:21:47;6.60;;;4.35;;
61962;SDS011;47927;42.646;23.096;2023-04-07T11:27:02;8.05;;;4.05;;
61962;SDS011;47927;42.646;23.096;2023-04-07T11:29:28;7.60;;;4.35;;
61962;SDS011;47927;42.646;23.096;2023-04-07T11:31:55;6.43;;;3.95;;
61962;SDS011;47927;42.646;23.096;2023-04-07T11:34:28;5.78;;;3.70;;
61962;SDS011;47927;42.646;23.096;2023-04-07T11:36:54;8.25;;;4.57;;
61962;SDS011;47927;42.646;23.096;2023-04-07T11:39:24;6.57;;;4.07;;
61962;SDS011;47927;42.646;23.096;2023-04-07T11:41:55;7.55;;;4.18;;
61962;SDS011;47927;42.646;23.096;2023-04-07T11:44:21;5.95;;;3.97;;
61962;SDS011;47927;42.646;23.096;2023-04-07T11:49:24;6.50;;;4.25;;
61962;SDS011;47927;42.646;23.096;2023-04-07T11:52:04;6.38;;;3.92;;
61962;SDS011;47927;42.646;23.096;2023-04-07T11:54:41;9.32;;;4.13;;
61962;SDS011;47927;42.646;23.096;2023-04-07T11:57:07;7.10;;;4.10;;
61962;SDS011;47927;42.646;23.096;2023-04-07T11:59:36;11.30;;;3.95;;
61962;SDS011;47927;42.646;23.096;2023-04-07T12:02:02;8.70;;;4.18;;
61962;SDS011;47927;42.646;23.096;2023-04-07T12:04:28;8.88;;;3.90;;
61962;SDS011;47927;42.646;23.096;2023-04-07T12:06:54;7.68;;;3.90;;
61962;SDS011;47927;42.646;23.096;2023-04-07T12:09:32;6.00;;;3.70;;
61962;SDS011;47927;42.646;23.096;2023-04-07T12:12:02;5.32;;;3.42;;
61962;SDS011;47927;42.646;23.096;2023-04-07T12:16:58;6.07;;;3.22;;
61962;SDS011;47927;42.646;23.096;2023-04-07T12:19:26;10.05;;;3.72;;
61962;SDS011;47927;42.646;23.096;2023-04-07T12:21:52;7.18;;;4.40;;
61962;SDS011;47927;42.646;23.096;2023-04-07T12:24:18;8.75;;;4.00;;
61962;SDS011;47927;42.646;23.096;2023-04-07T12:26:44;5.43;;;3.70;;
61962;SDS011;47927;42.646;23.096;2023-04-07T12:29:10;9.27;;;3.58;;
61962;SDS011;47927;42.646;23.096;2023-04-07T12:31:35;7.63;;;4.20;;
61962;SDS011;47927;42.646;23.096;2023-04-07T12:34:01;8.10;;;4.20;;
61962;SDS011;47927;42.646;23.096;2023-04-07T12:36:27;5.50;;;3.40;;
61962;SDS011;47927;42.646;23.096;2023-04-07T12:38:53;5.30;;;4.05;;
61962;SDS011;47927;42.646;23.096;2023-04-07T12:41:20;7.43;;;3.80;;
61962;SDS011;47927;42.646;23.096;2023-04-07T12:43:45;8.63;;;4.55;;
61962;SDS011;47927;42.646;23.096;2023-04-07T12:46:11;5.60;;;3.70;;
61962;SDS011;47927;42.646;23.096;2023-04-07T12:48:37;5.75;;;3.70;;
61962;SDS011;47927;42.646;23.096;2023-04-07T12:51:03;6.03;;;3.72;;
61962;SDS011;47927;42.646;23.096;2023-04-07T12:53:29;6.75;;;3.47;;
61962;SDS011;47927;42.646;23.096;2023-04-07T12:55:55;6.18;;;3.90;;
61962;SDS011;47927;42.646;23.096;2023-04-07T12:58:21;5.18;;;3.42;;
61962;SDS011;47927;42.646;23.096;2023-04-07T13:00:46;6.05;;;3.83;;
61962;SDS011;47927;42.646;23.096;2023-04-07T13:03:12;5.60;;;3.88;;
61962;SDS011;47927;42.646;23.096;2023-04-07T13:05:38;5.57;;;3.58;;
61962;SDS011;47927;42.646;23.096;2023-04-07T13:08:04;10.30;;;3.45;;
61962;SDS011;47927;42.646;23.096;2023-04-07T13:10:30;5.30;;;3.30;;
61962;SDS011;47927;42.646;23.096;2023-04-07T13:12:55;5.70;;;3.75;;
61962;SDS011;47927;42.646;23.096;2023-04-07T13:15:21;5.60;;;3.17;;
61962;SDS011;47927;42.646;23.096;2023-04-07T13:17:46;5.65;;;3.40;;
61962;SDS011;47927;42.646;23.096;2023-04-07T13:20:13;5.30;;;3.35;;
61962;SDS011;47927;42.646;23.096;2023-04-07T13:22:39;7.68;;;3.72;;
61962;SDS011;47927;42.646;23.096;2023-04-07T13:25:04;6.72;;;4.00;;
61962;SDS011;47927;42.646;23.096;2023-04-07T13:27:30;8.27;;;4.18;;
61962;SDS011;47927;42.646;23.096;2023-04-07T13:29:56;7.88;;;4.22;;
61962;SDS011;47927;42.646;23.096;2023-04-07T13:32:21;7.22;;;4.38;;
61962;SDS011;47927;42.646;23.096;2023-04-07T13:34:47;5.93;;;3.85;;
61962;SDS011;47927;42.646;23.096;2023-04-07T13:37:13;5.95;;;4.18;;
61962;SDS011;47927;42.646;23.096;2023-04-07T13:39:40;6.68;;;4.78;;
61962;SDS011;47927;42.646;23.096;2023-04-07T13:42:06;10.45;;;4.72;;
61962;SDS011;47927;42.646;23.096;2023-04-07T13:44:34;8.30;;;4.53;;
61962;SDS011;47927;42.646;23.096;2023-04-07T13:47:01;8.07;;;4.68;;
61962;SDS011;47927;42.646;23.096;2023-04-07T13:49:27;8.70;;;4.40;;
61962;SDS011;47927;42.646;23.096;2023-04-07T13:51:53;8.05;;;3.90;;
61962;SDS011;47927;42.646;23.096;2023-04-07T13:54:19;8.35;;;3.88;;
61962;SDS011;47927;42.646;23.096;2023-04-07T13:56:45;6.30;;;3.78;;
61962;SDS011;47927;42.646;23.096;2023-04-07T13:59:13;7.43;;;4.28;;
61962;SDS011;47927;42.646;23.096;2023-04-07T14:01:39;7.82;;;4.18;;
61962;SDS011;47927;42.646;23.096;2023-04-07T14:04:05;9.05;;;5.30;;
61962;SDS011;47927;42.646;23.096;2023-04-07T14:06:31;9.38;;;4.38;;
61962;SDS011;47927;42.646;23.096;2023-04-07T14:08:56;8.43;;;4.25;;
61962;SDS011;47927;42.646;23.096;2023-04-07T14:11:22;7.15;;;4.35;;
61962;SDS011;47927;42.646;23.096;2023-04-07T14:13:49;6.13;;;3.85;;
61962;SDS011;47927;42.646;23.096;2023-04-07T14:16:16;8.70;;;4.78;;
61962;SDS011;47927;42.646;23.096;2023-04-07T14:18:42;7.47;;;4.65;;
61962;SDS011;47927;42.646;23.096;2023-04-07T14:21:08;6.70;;;3.85;;
61962;SDS011;47927;42.646;23.096;2023-04-07T14:23:33;7.93;;;4.50;;
61962;SDS011;47927;42.646;23.096;2023-04-07T14:25:59;9.75;;;4.80;;
61962;SDS011;47927;42.646;23.096;2023-04-07T14:28:26;8.05;;;4.93;;
61962;SDS011;47927;42.646;23.096;2023-04-07T14:30:52;8.35;;;4.88;;
61962;SDS011;47927;42.646;23.096;2023-04-07T14:33:19;8.80;;;4.88;;
61962;SDS011;47927;42.646;23.096;2023-04-07T14:35:45;9.13;;;4.50;;
61962;SDS011;47927;42.646;23.096;2023-04-07T14:38:10;8.80;;;4.20;;
61962;SDS011;47927;42.646;23.096;2023-04-07T14:40:36;6.60;;;4.18;;
61962;SDS011;47927;42.646;23.096;2023-04-07T14:43:01;6.47;;;4.03;;
61962;SDS011;47927;42.646;23.096;2023-04-07T14:45:28;6.93;;;4.50;;
61962;SDS011;47927;42.646;23.096;2023-04-07T14:47:54;8.25;;;4.45;;
61962;SDS011;47927;42.646;23.096;2023-04-07T14:50:20;9.95;;;4.75;;
61962;SDS011;47927;42.646;23.096;2023-04-07T14:52:45;8.35;;;5.43;;
61962;SDS011;47927;42.646;23.096;2023-04-07T14:55:11;6.53;;;4.20;;
61962;SDS011;47927;42.646;23.096;2023-04-07T14:57:37;7.82;;;4.47;;
61962;SDS011;47927;42.646;23.096;2023-04-07T15:00:03;8.57;;;4.75;;
61962;SDS011;47927;42.646;23.096;2023-04-07T15:02:31;10.10;;;4.97;;
61962;SDS011;47927;42.646;23.096;2023-04-07T15:04:58;8.05;;;4.50;;
61962;SDS011;47927;42.646;23.096;2023-04-07T15:07:23;10.55;;;5.57;;
61962;SDS011;47927;42.646;23.096;2023-04-07T15:09:50;11.43;;;4.78;;
61962;SDS011;47927;42.646;23.096;2023-04-07T15:12:15;7.50;;;4.82;;